Time;durP1;ratioP1;P1;durP2;ratioP2;P2;SDS_P1;SDS_P2;PMS_P1;PMS_P2;Temp;Humidity;BMP_temperature;BMP_pressure;BME280_temperature;BME280_humidity;BME280_pressure;Samples;Min_cycle;Max_cycle;Signal;HPM_P1;HPM_P2
2023/10/17 00:02:10;;;;;;;3.20;0.60;;;8.30;76.50;;;;;;5027353;28;20129;-80
2023/10/17 00:04:38;;;;;;;1.77;0.40;;;8.30;76.40;;;;;;5027996;28;20266;-79
2023/10/17 00:07:07;;;;;;;1.77;0.40;;;8.20;76.20;;;;;;5026855;28;20042;-80
2023/10/17 00:09:37;;;;;;;2.22;0.30;;;8.20;76.40;;;;;;5026865;28;20046;-79
2023/10/17 00:12:14;;;;;;;2.30;0.40;;;8.20;76.60;;;;;;5011064;28;20046;-80
2023/10/17 00:14:57;;;;;;;1.77;0.30;;;8.10;76.90;;;;;;5010554;28;20080;-79
2023/10/17 00:17:25;;;;;;;1.05;0.10;;;8.10;76.90;;;;;;5026963;28;20257;-79
2023/10/17 00:19:52;;;;;;;1.08;0.20;;;8.10;76.80;;;;;;5026468;28;20042;-79
2023/10/17 00:22:23;;;;;;;1.40;0.20;;;8.10;76.80;;;;;;5025648;28;20594;-79
2023/10/17 00:24:55;;;;;;;3.95;0.60;;;8.10;76.90;;;;;;5027146;28;20650;-79
2023/10/17 00:27:22;;;;;;;2.13;0.43;;;8.10;76.80;;;;;;5028318;28;20046;-80
2023/10/17 00:29:51;;;;;;;1.88;0.55;;;8.10;76.70;;;;;;5009867;28;20273;-79
2023/10/17 00:32:18;;;;;;;2.10;0.40;;;8.10;76.80;;;;;;5010222;28;20686;-79
2023/10/17 00:34:46;;;;;;;2.20;0.60;;;8.10;76.90;;;;;;5010770;28;20140;-80
2023/10/17 00:37:15;;;;;;;2.45;0.75;;;8.10;76.90;;;;;;4997692;28;20042;-80
2023/10/17 00:39:42;;;;;;;2.63;0.80;;;8.10;76.80;;;;;;5006838;28;20062;-79
2023/10/17 00:42:27;;;;;;;3.00;0.90;;;8.10;76.90;;;;;;5018973;28;20280;-79
2023/10/17 00:44:55;;;;;;;3.50;0.90;;;8.10;76.90;;;;;;5010662;28;20069;-79
2023/10/17 00:47:23;;;;;;;2.53;0.70;;;8.00;76.90;;;;;;4995136;28;20062;-79
2023/10/17 00:49:50;;;;;;;3.42;1.00;;;8.00;77.00;;;;;;5005252;28;20057;-80
2023/10/17 00:52:24;;;;;;;2.90;0.80;;;8.00;77.20;;;;;;5019355;28;20042;-79
2023/10/17 00:54:53;;;;;;;2.97;0.75;;;8.00;77.30;;;;;;5009922;28;20276;-79
2023/10/17 00:57:26;;;;;;;3.22;0.80;;;8.00;77.30;;;;;;5013330;28;20532;-79
2023/10/17 00:59:55;;;;;;;2.22;0.60;;;8.00;77.50;;;;;;4990337;28;20046;-79
2023/10/17 01:02:23;;;;;;;2.33;0.50;;;8.00;77.60;;;;;;4990539;28;20065;-79
2023/10/17 01:04:51;;;;;;;2.47;0.40;;;8.00;77.50;;;;;;4991158;28;20069;-80
2023/10/17 01:07:26;;;;;;;1.70;0.40;;;7.90;77.50;;;;;;5002057;28;21157;-79
2023/10/17 01:10:00;;;;;;;1.75;0.30;;;7.90;77.60;;;;;;5009661;28;20600;-79
2023/10/17 01:12:28;;;;;;;2.05;0.30;;;7.80;77.60;;;;;;5012999;28;20054;-79
2023/10/17 01:14:57;;;;;;;2.00;0.30;;;7.80;77.60;;;;;;5023366;28;20053;-79
2023/10/17 01:17:27;;;;;;;2.03;0.40;;;7.80;77.70;;;;;;5016733;28;20125;-79
2023/10/17 01:19:57;;;;;;;2.47;0.40;;;7.70;77.90;;;;;;5009919;28;20277;-79
2023/10/17 01:22:24;;;;;;;1.73;0.30;;;7.70;78.00;;;;;;5009918;28;20522;-79
2023/10/17 01:24:56;;;;;;;1.65;0.30;;;7.70;78.00;;;;;;5009645;28;20060;-80
2023/10/17 01:27:24;;;;;;;2.58;0.32;;;7.70;77.90;;;;;;5014036;28;20368;-79
2023/10/17 01:29:51;;;;;;;2.33;0.40;;;7.60;77.80;;;;;;4990032;28;20054;-79
2023/10/17 01:32:21;;;;;;;1.83;0.40;;;7.60;77.90;;;;;;5007373;28;20361;-79
2023/10/17 01:34:48;;;;;;;2.20;0.50;;;7.50;77.90;;;;;;5010113;28;20054;-79
2023/10/17 01:37:16;;;;;;;2.10;0.40;;;7.50;77.90;;;;;;4993256;28;20078;-79
2023/10/17 01:39:43;;;;;;;2.20;0.50;;;7.50;77.80;;;;;;5009875;28;20511;-79
2023/10/17 01:42:12;;;;;;;2.90;0.50;;;7.40;78.00;;;;;;5009358;28;20061;-80
2023/10/17 01:44:39;;;;;;;3.28;0.60;;;7.40;78.20;;;;;;4993388;28;20282;-79
2023/10/17 01:47:07;;;;;;;2.28;0.40;;;7.40;78.30;;;;;;5017634;28;20050;-79
2023/10/17 01:49:36;;;;;;;3.55;0.68;;;7.40;78.40;;;;;;5028980;28;20167;-79
2023/10/17 01:52:06;;;;;;;2.67;0.40;;;7.40;78.40;;;;;;5029118;28;20647;-79
2023/10/17 01:54:33;;;;;;;2.47;0.60;;;7.40;78.50;;;;;;5012931;28;20053;-79
2023/10/17 01:57:06;;;;;;;2.80;0.50;;;7.50;78.50;;;;;;5012944;28;20277;-79
2023/10/17 01:59:36;;;;;;;2.83;0.60;;;7.50;78.40;;;;;;5012246;28;20151;-80
2023/10/17 02:02:03;;;;;;;3.05;0.50;;;7.50;78.50;;;;;;5012677;28;20061;-79
2023/10/17 02:04:34;;;;;;;2.40;0.50;;;7.50;78.40;;;;;;5012741;28;20054;-79
2023/10/17 02:07:02;;;;;;;3.20;0.50;;;7.50;78.50;;;;;;5012302;28;20049;-79
2023/10/17 02:12:10;;;;;;;1.90;0.40;;;7.50;78.40;;;;;;5028367;28;20046;-79
2023/10/17 02:14:38;;;;;;;2.92;0.43;;;7.50;78.30;;;;;;5012339;28;20061;-79
2023/10/17 02:17:06;;;;;;;3.47;0.32;;;7.50;78.30;;;;;;5012344;28;20153;-79
2023/10/17 02:19:33;;;;;;;1.93;0.30;;;7.50;78.10;;;;;;5011945;28;20137;-79
2023/10/17 02:22:01;;;;;;;1.77;0.43;;;7.50;77.90;;;;;;5005098;28;20257;-80
2023/10/17 02:24:29;;;;;;;2.05;0.40;;;7.40;77.90;;;;;;4998038;28;20058;-80
2023/10/17 02:26:56;;;;;;;2.80;0.70;;;7.40;78.00;;;;;;5010511;28;20551;-79
2023/10/17 02:29:26;;;;;;;4.30;0.50;;;7.30;78.00;;;;;;5026653;28;20990;-79
2023/10/17 02:31:58;;;;;;;2.50;0.30;;;7.30;78.20;;;;;;5022825;28;20544;-80
2023/10/17 02:34:29;;;;;;;2.65;0.20;;;7.30;78.20;;;;;;5009190;28;20282;-79
2023/10/17 02:36:56;;;;;;;1.92;0.30;;;7.20;78.00;;;;;;5012819;28;20042;-79
2023/10/17 02:39:24;;;;;;;1.58;0.25;;;7.20;78.10;;;;;;5029088;28;20127;-79
2023/10/17 02:41:58;;;;;;;3.00;0.47;;;7.20;78.10;;;;;;5011285;28;20113;-79
2023/10/17 02:44:25;;;;;;;3.40;0.40;;;7.10;78.20;;;;;;5010321;28;20619;-79
2023/10/17 02:46:56;;;;;;;1.92;0.40;;;7.10;78.30;;;;;;5044569;28;20695;-79
2023/10/17 02:49:26;;;;;;;1.95;0.40;;;7.10;78.40;;;;;;5028721;28;20075;-79
2023/10/17 02:51:54;;;;;;;2.30;0.40;;;7.20;78.20;;;;;;5009049;28;20056;-79
2023/10/17 02:54:27;;;;;;;1.95;0.30;;;7.20;78.10;;;;;;4992218;28;20042;-79
2023/10/17 02:56:54;;;;;;;2.73;0.30;;;7.20;78.20;;;;;;5008651;28;20136;-79
2023/10/17 02:59:21;;;;;;;4.10;0.60;;;7.10;78.10;;;;;;5008510;28;20365;-79
2023/10/17 03:01:53;;;;;;;2.85;0.50;;;7.20;78.10;;;;;;4992295;28;20082;-79
2023/10/17 03:04:23;;;;;;;2.17;0.40;;;7.20;78.00;;;;;;5008689;28;20085;-79
2023/10/17 03:06:55;;;;;;;3.28;0.52;;;7.20;78.00;;;;;;4992283;28;20433;-79
2023/10/17 03:12:09;;;;;;;4.50;0.38;;;7.20;77.90;;;;;;5006284;28;20270;-80
2023/10/17 03:15:18;;;;;;;1.55;0.22;;;7.10;77.70;;;;;;5008569;28;20054;-79
2023/10/17 03:17:36;;;;;;;1.58;0.35;;;7.00;77.60;;;;;;5007758;28;20148;-79
2023/10/17 03:20:08;;;;;;;1.73;0.30;;;7.00;77.50;;;;;;4991183;28;20050;-79
2023/10/17 03:22:36;;;;;;;1.70;0.30;;;7.00;77.30;;;;;;5008340;28;20444;-79
2023/10/17 03:25:09;;;;;;;2.53;0.45;;;7.00;77.40;;;;;;5003596;28;20064;-78
2023/10/17 03:27:36;;;;;;;1.50;0.20;;;7.00;77.50;;;;;;5020912;28;20082;-79
2023/10/17 03:30:10;;;;;;;1.98;0.40;;;7.00;77.40;;;;;;4991437;28;20050;-79
2023/10/17 03:32:52;;;;;;;2.13;0.40;;;7.00;77.40;;;;;;4998410;28;20559;-79
2023/10/17 03:35:21;;;;;;;1.30;0.20;;;7.00;77.20;;;;;;5011447;28;20046;-79
2023/10/17 03:37:51;;;;;;;2.58;0.40;;;6.90;77.00;;;;;;5027517;28;20057;-79
2023/10/17 03:40:19;;;;;;;1.55;0.30;;;6.90;77.10;;;;;;5029402;28;20531;-80
2023/10/17 03:42:53;;;;;;;2.13;0.28;;;6.90;77.10;;;;;;5020577;28;20061;-79
2023/10/17 03:45:26;;;;;;;1.90;0.40;;;6.80;77.10;;;;;;5010091;28;20122;-79
2023/10/17 03:47:57;;;;;;;2.00;0.37;;;6.80;77.20;;;;;;5007739;28;20038;-79
2023/10/17 03:50:36;;;;;;;3.60;0.82;;;6.70;77.10;;;;;;5007307;28;20125;-79
2023/10/17 03:53:07;;;;;;;2.83;0.80;;;6.70;77.00;;;;;;5007673;28;20165;-79
2023/10/17 03:55:36;;;;;;;3.17;0.70;;;6.70;77.20;;;;;;4991522;28;20053;-79
2023/10/17 03:58:18;;;;;;;3.63;0.98;;;6.70;77.40;;;;;;5007293;28;20595;-79
2023/10/17 04:00:46;;;;;;;3.17;0.70;;;6.60;77.50;;;;;;5007634;28;20098;-79
2023/10/17 04:03:21;;;;;;;2.70;0.50;;;6.60;77.50;;;;;;5007651;28;20054;-79
2023/10/17 04:05:50;;;;;;;3.38;0.70;;;6.60;77.70;;;;;;5007138;28;20505;-80
2023/10/17 04:08:26;;;;;;;3.53;0.80;;;6.60;77.70;;;;;;4991366;28;20054;-79
2023/10/17 04:11:08;;;;;;;3.20;0.70;;;6.50;77.80;;;;;;5006906;28;20513;-79
2023/10/17 04:13:37;;;;;;;2.83;0.60;;;6.50;77.90;;;;;;5007611;28;20054;-80
2023/10/17 04:16:09;;;;;;;2.63;0.55;;;6.60;78.00;;;;;;5008934;28;20543;-79
2023/10/17 04:18:37;;;;;;;2.95;0.70;;;6.60;78.10;;;;;;4990663;28;20358;-79
2023/10/17 04:21:17;;;;;;;3.45;0.68;;;6.60;78.00;;;;;;5006919;28;20047;-79
2023/10/17 04:23:49;;;;;;;3.13;0.80;;;6.50;78.00;;;;;;5009429;28;20093;-80
2023/10/17 04:26:19;;;;;;;3.37;0.80;;;6.50;78.10;;;;;;5027145;28;20497;-79
2023/10/17 04:28:49;;;;;;;3.78;0.70;;;6.50;78.10;;;;;;4997403;28;20050;-79
2023/10/17 04:31:25;;;;;;;3.08;0.70;;;6.50;78.20;;;;;;5006149;28;20050;-79
2023/10/17 04:33:56;;;;;;;2.58;0.60;;;6.50;78.20;;;;;;5019688;28;20053;-79
2023/10/17 04:36:25;;;;;;;2.67;0.60;;;6.50;78.30;;;;;;5010243;28;20057;-79
2023/10/17 04:41:48;;;;;;;6.32;0.88;;;6.50;78.40;;;;;;5025531;28;20054;-79
2023/10/17 04:44:16;;;;;;;3.38;0.93;;;6.50;78.50;;;;;;5012265;28;20157;-79
2023/10/17 04:46:50;;;;;;;4.60;0.98;;;6.50;78.70;;;;;;5008538;28;20420;-79
2023/10/17 04:49:21;;;;;;;5.28;1.10;;;6.60;78.80;;;;;;4990430;28;20051;-78
2023/10/17 04:51:52;;;;;;;2.80;0.90;;;6.50;78.80;;;;;;4990043;28;20439;-79
2023/10/17 04:54:29;;;;;;;3.72;0.93;;;6.50;78.90;;;;;;5023354;28;20180;-79
2023/10/17 04:57:00;;;;;;;5.43;1.25;;;6.50;79.00;;;;;;5026880;28;20054;-79
2023/10/17 04:59:51;;;;;;;4.72;1.08;;;6.50;79.10;;;;;;5009462;28;20147;-78
2023/10/17 05:08:11;;;;;;;3.10;1.10;;;6.50;79.30;;;;;;5010915;28;20062;-78
2023/10/17 06:19:21;;;;;;;5.78;1.77;;;6.60;80.90;;;;;;5018068;28;20054;-77
2023/10/17 06:26:03;;;;;;;7.85;2.03;;;6.60;81.00;;;;;;5041984;28;20369;-77
2023/10/17 06:30:35;;;;;;;5.30;1.98;;;6.60;81.00;;;;;;5041951;28;20133;-80
2023/10/17 06:33:16;;;;;;;5.22;2.00;;;6.70;81.10;;;;;;5026059;28;20060;-79
2023/10/17 06:35:52;;;;;;;4.35;1.73;;;6.70;81.10;;;;;;5026800;28;20057;-78
2023/10/17 06:38:19;;;;;;;4.72;2.00;;;6.70;81.10;;;;;;5026495;28;20054;-76
2023/10/17 06:40:46;;;;;;;4.40;1.67;;;6.70;81.10;;;;;;5027417;28;20046;-80
2023/10/17 06:43:14;;;;;;;6.00;2.03;;;6.70;81.20;;;;;;5026741;28;20060;-80
2023/10/17 06:46:00;;;;;;;6.45;2.53;;;6.70;81.20;;;;;;5025078;28;20162;-80
2023/10/17 06:48:48;;;;;;;4.55;2.25;;;6.70;81.30;;;;;;5025054;28;20283;-80
2023/10/17 06:51:29;;;;;;;4.85;2.10;;;6.70;81.30;;;;;;5025979;28;20062;-80
2023/10/17 06:54:05;;;;;;;5.07;2.10;;;6.70;81.40;;;;;;5004046;28;20054;-80
2023/10/17 06:56:38;;;;;;;4.72;1.83;;;6.70;81.50;;;;;;4990101;28;20062;-80
2023/10/17 06:59:22;;;;;;;5.82;2.10;;;6.80;81.60;;;;;;5014463;28;20097;-80
2023/10/17 07:02:03;;;;;;;4.82;1.83;;;6.80;81.60;;;;;;5008772;28;20089;-80
2023/10/17 07:04:33;;;;;;;6.80;2.70;;;6.80;81.70;;;;;;5020271;28;20109;-80
2023/10/17 07:07:04;;;;;;;7.30;2.30;;;6.80;81.80;;;;;;5009083;28;20054;-80
2023/10/17 07:09:37;;;;;;;4.88;2.20;;;6.80;81.90;;;;;;4997229;28;20050;-78
2023/10/17 07:12:06;;;;;;;6.43;2.27;;;6.80;82.00;;;;;;5028165;28;20412;-81
2023/10/17 07:14:36;;;;;;;5.22;2.30;;;6.80;82.10;;;;;;5025731;28;20046;-76
2023/10/17 07:17:17;;;;;;;5.30;2.17;;;6.90;82.30;;;;;;5025153;28;20831;-78
2023/10/17 07:19:48;;;;;;;5.17;2.23;;;6.90;82.40;;;;;;5022669;28;20128;-78
2023/10/17 07:22:16;;;;;;;6.60;2.60;;;6.90;82.40;;;;;;5008250;28;20060;-79
2023/10/17 07:24:48;;;;;;;6.78;2.70;;;6.90;82.60;;;;;;5025708;28;20073;-78
2023/10/17 07:27:26;;;;;;;6.65;2.67;;;7.00;82.60;;;;;;5026767;28;20277;-78
2023/10/17 07:29:59;;;;;;;6.65;2.80;;;7.00;82.60;;;;;;5025027;28;21007;-78
2023/10/17 07:32:32;;;;;;;5.80;2.63;;;7.00;82.80;;;;;;5027253;28;20058;-78
2023/10/17 07:35:04;;;;;;;6.38;2.75;;;7.00;83.00;;;;;;5025442;28;20167;-79
2023/10/17 07:37:34;;;;;;;5.63;2.80;;;7.00;83.00;;;;;;5025310;28;20587;-79
2023/10/17 07:40:21;;;;;;;7.35;2.83;;;7.10;83.20;;;;;;5026235;28;20050;-79
2023/10/17 07:42:49;;;;;;;6.35;2.97;;;7.20;83.50;;;;;;5026175;28;20803;-78
2023/10/17 07:45:16;;;;;;;9.37;3.10;;;7.20;83.80;;;;;;4996076;28;20121;-79
2023/10/17 07:47:51;;;;;;;7.68;3.70;;;7.20;83.90;;;;;;5007415;28;20290;-79
2023/10/17 07:50:20;;;;;;;5.75;3.30;;;7.20;83.90;;;;;;5007509;28;20070;-78
2023/10/17 07:52:51;;;;;;;7.22;3.50;;;7.30;84.10;;;;;;5007358;28;20099;-79
2023/10/17 07:55:19;;;;;;;8.50;3.60;;;7.40;84.40;;;;;;5007742;28;20057;-79
2023/10/17 07:57:51;;;;;;;7.50;3.70;;;7.40;84.40;;;;;;5007791;28;20061;-78
2023/10/17 08:00:26;;;;;;;9.23;3.95;;;7.40;84.50;;;;;;5008644;28;20386;-79
2023/10/17 08:02:54;;;;;;;9.23;3.90;;;7.50;84.50;;;;;;5007723;28;20058;-79
2023/10/17 08:05:26;;;;;;;8.60;4.30;;;7.50;84.70;;;;;;5012516;28;20628;-79
2023/10/17 08:08:04;;;;;;;7.57;3.15;;;7.50;84.70;;;;;;5028453;28;20107;-79
2023/10/17 08:10:33;;;;;;;6.10;3.40;;;7.60;84.80;;;;;;5027758;28;20124;-79
2023/10/17 08:13:01;;;;;;;7.65;3.60;;;7.60;84.90;;;;;;5010454;28;20045;-79
2023/10/17 08:15:36;;;;;;;6.25;3.30;;;7.70;85.00;;;;;;5026952;28;20058;-79
2023/10/17 08:18:05;;;;;;;8.65;3.50;;;7.80;84.90;;;;;;5010545;28;20641;-78
2023/10/17 08:23:25;;;;;;;7.73;3.30;;;7.90;85.00;;;;;;5007228;28;20569;-78
2023/10/17 08:25:59;;;;;;;8.68;3.60;;;7.90;84.90;;;;;;5008584;28;20046;-79
2023/10/17 08:28:33;;;;;;;6.32;3.45;;;8.00;85.00;;;;;;5008953;28;20058;-79
2023/10/17 08:31:17;;;;;;;8.18;3.03;;;8.00;85.00;;;;;;4990429;28;20133;-79
2023/10/17 08:33:50;;;;;;;6.97;3.00;;;8.10;85.30;;;;;;5008605;28;20137;-79
2023/10/17 08:36:23;;;;;;;6.57;2.80;;;8.10;85.20;;;;;;5008556;28;20054;-79
2023/10/17 08:38:49;;;;;;;6.28;2.75;;;8.20;85.10;;;;;;5026910;28;20050;-79
2023/10/17 08:41:16;;;;;;;5.20;2.58;;;8.20;84.90;;;;;;5000695;28;20050;-78
2023/10/17 08:43:42;;;;;;;5.55;2.53;;;8.30;84.80;;;;;;5006684;28;20062;-79
2023/10/17 08:46:10;;;;;;;8.87;2.93;;;8.30;84.70;;;;;;5006971;28;20057;-78
2023/10/17 08:48:38;;;;;;;4.50;2.10;;;8.40;84.60;;;;;;5012930;28;20245;-79
2023/10/17 08:51:07;;;;;;;5.57;2.22;;;8.40;84.30;;;;;;5025677;28;20086;-79
2023/10/17 08:53:39;;;;;;;6.95;1.98;;;8.50;84.30;;;;;;5028205;28;20741;-79
2023/10/17 08:56:08;;;;;;;5.78;1.83;;;8.50;84.10;;;;;;5026305;28;20617;-79
2023/10/17 08:58:36;;;;;;;5.83;1.70;;;8.60;84.00;;;;;;5026392;28;20602;-79
2023/10/17 09:01:11;;;;;;;5.90;1.60;;;8.60;83.80;;;;;;5025855;28;20877;-78
2023/10/17 09:03:44;;;;;;;4.93;1.50;;;8.60;83.60;;;;;;5025967;28;20140;-79
2023/10/17 09:09:17;;;;;;;4.43;1.30;;;8.80;83.30;;;;;;5026978;28;20119;-79
2023/10/17 09:12:19;;;;;;;4.07;1.40;;;8.90;83.10;;;;;;5025634;28;20050;-78
2023/10/17 09:14:48;;;;;;;4.85;1.08;;;8.90;82.90;;;;;;5025415;28;20273;-79
2023/10/17 09:17:20;;;;;;;4.28;1.33;;;9.00;83.00;;;;;;5008960;28;20046;-78
2023/10/17 09:19:50;;;;;;;3.08;0.90;;;9.00;82.60;;;;;;5007667;28;20060;-78
2023/10/17 09:22:37;;;;;;;5.13;1.35;;;9.10;82.50;;;;;;5023393;28;20054;-76
2023/10/17 09:25:22;;;;;;;4.30;1.10;;;9.20;82.40;;;;;;5007586;28;20053;-78
2023/10/17 09:27:51;;;;;;;3.33;0.82;;;9.20;82.20;;;;;;5008488;28;20305;-78
2023/10/17 09:30:18;;;;;;;3.50;0.88;;;9.20;81.90;;;;;;5024562;28;20057;-78
2023/10/17 09:32:46;;;;;;;4.22;0.70;;;9.40;81.70;;;;;;5024006;28;20156;-77
2023/10/17 09:35:16;;;;;;;3.10;0.60;;;9.40;81.40;;;;;;5025079;28;20074;-78
2023/10/17 09:37:45;;;;;;;5.30;1.27;;;9.40;81.30;;;;;;5026619;28;20098;-78
2023/10/17 09:40:18;;;;;;;5.60;0.85;;;9.50;81.20;;;;;;5024682;28;20285;-77
2023/10/17 09:42:47;;;;;;;4.15;0.70;;;9.60;80.90;;;;;;5018861;28;20495;-78
2023/10/17 09:45:15;;;;;;;4.32;0.80;;;9.70;80.70;;;;;;4999109;28;20169;-79
2023/10/17 09:47:46;;;;;;;4.72;0.80;;;9.70;80.50;;;;;;5027196;28;20050;-78
2023/10/17 09:50:16;;;;;;;3.03;0.80;;;9.80;80.00;;;;;;5023675;28;20112;-78
2023/10/17 09:52:45;;;;;;;3.42;0.60;;;9.80;79.80;;;;;;5006391;28;20344;-78
2023/10/17 09:55:17;;;;;;;4.03;1.10;;;10.00;79.90;;;;;;5025792;28;20062;-77
2023/10/17 09:57:51;;;;;;;3.70;1.02;;;10.00;79.80;;;;;;5001888;28;20051;-77
2023/10/17 10:00:34;;;;;;;3.42;0.70;;;10.00;79.50;;;;;;5033591;28;20057;-77
2023/10/17 10:03:02;;;;;;;3.20;0.70;;;10.10;79.30;;;;;;5017502;28;20480;-78
2023/10/17 10:05:29;;;;;;;5.10;1.00;;;10.20;79.00;;;;;;5019884;28;20400;-77
2023/10/17 10:08:02;;;;;;;3.33;1.00;;;10.30;78.50;;;;;;5022728;28;20049;-77
2023/10/17 10:10:52;;;;;;;4.78;1.10;;;10.40;78.60;;;;;;5016521;28;20049;-78
2023/10/17 10:13:21;;;;;;;3.63;0.70;;;10.40;78.20;;;;;;5054167;28;20069;-76
2023/10/17 10:15:58;;;;;;;4.77;0.93;;;10.50;77.90;;;;;;5026528;28;20976;-76
2023/10/17 10:18:58;;;;;;;3.45;0.82;;;10.60;78.00;;;;;;5028434;28;20798;-78
2023/10/17 10:21:52;;;;;;;5.38;0.90;;;10.70;77.80;;;;;;4966709;28;20461;-79
2023/10/17 10:24:23;;;;;;;3.90;0.70;;;10.80;77.50;;;;;;5025037;28;20054;-77
2023/10/17 10:27:20;;;;;;;3.60;0.63;;;10.80;77.50;;;;;;5026539;28;20112;-76
2023/10/17 10:29:52;;;;;;;3.03;0.50;;;10.90;77.20;;;;;;5025899;28;20082;-77
2023/10/17 10:32:37;;;;;;;4.60;0.70;;;11.00;77.30;;;;;;5028435;28;20278;-78
2023/10/17 10:35:06;;;;;;;5.07;0.60;;;11.10;75.70;;;;;;5011233;28;20191;-75
2023/10/17 10:37:46;;;;;;;3.28;0.60;;;11.10;75.30;;;;;;5028333;28;20065;-80
2023/10/17 10:40:17;;;;;;;3.15;0.60;;;11.30;75.50;;;;;;5029512;28;20057;-77
2023/10/17 10:42:48;;;;;;;3.23;0.50;;;11.30;75.30;;;;;;5028738;28;20061;-79
2023/10/17 10:45:26;;;;;;;2.92;0.47;;;11.40;74.80;;;;;;5026242;28;20260;-78
2023/10/17 10:47:57;;;;;;;2.97;0.50;;;11.50;74.90;;;;;;5028007;28;20554;-78
2023/10/17 10:50:30;;;;;;;2.15;0.40;;;11.50;74.20;;;;;;5025891;28;20054;-77
2023/10/17 10:52:58;;;;;;;2.55;0.52;;;11.60;74.20;;;;;;5026922;28;20054;-77
2023/10/17 10:55:26;;;;;;;3.47;0.73;;;11.70;73.50;;;;;;5004687;28;20780;-76
2023/10/17 10:57:55;;;;;;;3.58;0.50;;;11.70;73.30;;;;;;4999621;28;20285;-82
2023/10/17 11:00:22;;;;;;;3.10;0.45;;;11.90;73.20;;;;;;5010436;28;20558;-79
2023/10/17 11:02:50;;;;;;;3.75;0.50;;;11.90;73.20;;;;;;5027101;28;20475;-77
2023/10/17 11:05:17;;;;;;;3.03;0.52;;;12.00;72.50;;;;;;5027039;28;20046;-76
2023/10/17 11:07:45;;;;;;;3.57;0.57;;;12.00;72.50;;;;;;5028517;28;20054;-76
2023/10/17 11:10:13;;;;;;;2.58;0.50;;;12.10;72.60;;;;;;5029305;28;20258;-77
2023/10/17 11:12:42;;;;;;;2.40;0.40;;;12.20;72.70;;;;;;5027762;28;20046;-75
2023/10/17 11:15:14;;;;;;;2.53;0.60;;;12.30;72.20;;;;;;5026001;28;20050;-75
2023/10/17 11:17:42;;;;;;;2.88;0.57;;;12.40;72.30;;;;;;5026990;28;20512;-80
2023/10/17 11:20:16;;;;;;;2.53;0.60;;;12.50;72.10;;;;;;5008896;28;20046;-76
2023/10/17 11:22:43;;;;;;;3.50;0.55;;;12.50;72.60;;;;;;5008313;28;20333;-79
2023/10/17 11:25:21;;;;;;;3.50;0.52;;;12.50;71.70;;;;;;5006721;28;20129;-78
2023/10/17 11:27:53;;;;;;;3.83;0.63;;;12.70;71.20;;;;;;5007128;28;20098;-81
2023/10/17 11:30:32;;;;;;;3.10;0.60;;;12.70;70.30;;;;;;4991229;28;20137;-79
2023/10/17 11:33:10;;;;;;;2.20;0.40;;;12.80;70.20;;;;;;5008676;28;20049;-78
2023/10/17 11:35:38;;;;;;;2.78;0.60;;;12.90;69.60;;;;;;5008174;28;20258;-81
2023/10/17 11:38:07;;;;;;;4.22;0.55;;;12.90;70.20;;;;;;5008380;28;20054;-83
2023/10/17 11:40:44;;;;;;;3.53;0.63;;;13.00;69.70;;;;;;5021332;28;20054;-78
2023/10/17 11:43:18;;;;;;;4.15;0.60;;;13.10;68.70;;;;;;5027411;28;20117;-78
2023/10/17 11:45:47;;;;;;;4.73;0.70;;;13.10;68.40;;;;;;5027003;28;20046;-79
2023/10/17 11:48:28;;;;;;;3.90;0.63;;;13.10;68.30;;;;;;5018346;28;21361;-77
2023/10/17 11:51:12;;;;;;;3.80;0.60;;;13.30;68.30;;;;;;5024969;28;20076;-79
2023/10/17 11:54:05;;;;;;;2.60;0.50;;;13.30;67.90;;;;;;5021730;28;20045;-77
2023/10/17 11:56:33;;;;;;;4.80;0.60;;;13.40;67.90;;;;;;5025050;28;20089;-77
2023/10/17 11:59:02;;;;;;;2.80;0.60;;;13.50;67.70;;;;;;5025450;28;20046;-78
2023/10/17 12:02:20;;;;;;;3.22;0.50;;;13.50;67.30;;;;;;5010252;28;20245;-79
2023/10/17 12:04:48;;;;;;;3.10;0.50;;;13.60;67.10;;;;;;5012540;28;20091;-78
2023/10/17 12:07:17;;;;;;;3.47;0.55;;;13.60;67.40;;;;;;5025851;28;20054;-77
2023/10/17 12:09:45;;;;;;;4.07;0.52;;;13.70;67.30;;;;;;5026137;28;20534;-78
2023/10/17 12:12:17;;;;;;;2.67;0.60;;;13.80;67.50;;;;;;5027475;28;20054;-78
2023/10/17 12:14:47;;;;;;;4.15;0.50;;;13.90;67.00;;;;;;5023078;28;20266;-78
2023/10/17 12:17:18;;;;;;;3.63;0.50;;;13.90;66.90;;;;;;5007524;28;20046;-78
2023/10/17 12:19:46;;;;;;;2.00;0.50;;;13.90;66.70;;;;;;5019411;28;20054;-78
2023/10/17 12:22:15;;;;;;;3.70;0.43;;;14.00;65.70;;;;;;5027415;28;20396;-78
2023/10/17 12:24:42;;;;;;;4.27;0.70;;;14.00;65.60;;;;;;5027284;28;20078;-78
2023/10/17 12:27:12;;;;;;;2.55;0.70;;;14.10;64.50;;;;;;5028517;28;20309;-80
2023/10/17 12:29:39;;;;;;;3.20;0.50;;;14.10;64.60;;;;;;5010842;28;20050;-78
2023/10/17 12:32:10;;;;;;;3.63;0.70;;;14.10;65.20;;;;;;5026898;28;20492;-78
2023/10/17 12:34:39;;;;;;;2.45;0.60;;;14.20;64.90;;;;;;5027179;28;20058;-78
2023/10/17 12:37:10;;;;;;;4.00;0.90;;;14.20;65.10;;;;;;5026982;28;20050;-78
2023/10/17 12:39:42;;;;;;;4.57;0.85;;;14.20;65.20;;;;;;5026741;28;20273;-79
2023/10/17 12:42:09;;;;;;;4.40;0.70;;;14.30;64.20;;;;;;5026787;28;20870;-78
2023/10/17 12:44:36;;;;;;;3.88;0.80;;;14.40;64.90;;;;;;5020993;28;20181;-77
2023/10/17 12:47:03;;;;;;;3.05;0.60;;;14.40;64.20;;;;;;5022017;28;20134;-77
2023/10/17 12:49:30;;;;;;;3.67;0.57;;;14.50;64.40;;;;;;5019651;28;20054;-78
2023/10/17 12:52:00;;;;;;;4.88;0.77;;;14.50;64.40;;;;;;5009746;28;20277;-78
2023/10/17 12:54:27;;;;;;;3.90;0.80;;;14.50;64.20;;;;;;5026817;28;20058;-79
2023/10/17 12:56:56;;;;;;;3.08;0.70;;;14.60;64.00;;;;;;5010564;28;20049;-78
2023/10/17 12:59:23;;;;;;;3.20;0.80;;;14.60;63.80;;;;;;5010441;28;20137;-79
2023/10/17 13:01:51;;;;;;;2.63;0.70;;;14.60;63.10;;;;;;5009154;28;20137;-79
2023/10/17 13:04:21;;;;;;;4.20;0.85;;;14.60;62.30;;;;;;5027959;28;20344;-78
2023/10/17 13:06:53;;;;;;;3.63;0.80;;;14.60;62.10;;;;;;5026425;28;20427;-79
2023/10/17 13:09:22;;;;;;;3.35;0.90;;;14.70;62.70;;;;;;5037080;28;20045;-80
2023/10/17 13:11:49;;;;;;;4.35;0.88;;;14.70;63.00;;;;;;5022783;28;20078;-79
2023/10/17 13:14:18;;;;;;;4.47;0.70;;;14.70;62.70;;;;;;5011356;28;20572;-79
2023/10/17 13:16:45;;;;;;;3.38;0.80;;;14.70;62.00;;;;;;5040335;28;20632;-79
2023/10/17 13:19:39;;;;;;;4.72;0.80;;;14.70;61.50;;;;;;5026366;28;20042;-79
2023/10/17 13:22:08;;;;;;;3.20;0.77;;;14.70;62.40;;;;;;5007371;28;20047;-80
2023/10/17 13:24:35;;;;;;;4.22;0.70;;;14.80;62.50;;;;;;5026736;28;20541;-80
2023/10/17 13:27:04;;;;;;;3.20;0.60;;;14.80;61.40;;;;;;5025251;28;20443;-80
2023/10/17 13:29:36;;;;;;;4.25;0.70;;;14.80;61.80;;;;;;5016909;28;20270;-80
2023/10/17 13:32:07;;;;;;;3.42;0.65;;;14.80;61.20;;;;;;5027845;28;20058;-80
2023/10/17 13:34:35;;;;;;;4.05;0.60;;;14.80;60.80;;;;;;5028008;28;20168;-80
2023/10/17 13:37:05;;;;;;;4.50;0.95;;;14.80;60.60;;;;;;5008615;28;20162;-80
2023/10/17 13:39:32;;;;;;;4.70;0.80;;;14.90;60.80;;;;;;5008646;28;20057;-80
2023/10/17 13:42:02;;;;;;;3.22;0.68;;;14.90;61.00;;;;;;5028631;28;20771;-80
2023/10/17 13:44:29;;;;;;;3.05;0.55;;;14.90;61.10;;;;;;5030248;28;20697;-80
2023/10/17 13:46:58;;;;;;;3.08;0.60;;;14.90;60.90;;;;;;5014099;28;20512;-80
2023/10/17 13:49:29;;;;;;;3.78;0.70;;;14.90;60.60;;;;;;5022944;28;20624;-79
2023/10/17 13:51:58;;;;;;;3.33;0.63;;;14.90;59.90;;;;;;5024854;28;20047;-80
2023/10/17 13:54:27;;;;;;;2.72;0.50;;;15.00;60.00;;;;;;5010065;28;20261;-80
2023/10/17 13:56:55;;;;;;;3.15;0.80;;;15.00;60.00;;;;;;5009606;28;20061;-79
2023/10/17 13:59:38;;;;;;;4.10;0.80;;;15.00;60.60;;;;;;5015285;28;20861;-80
2023/10/17 14:02:07;;;;;;;3.55;0.77;;;15.00;60.50;;;;;;5018665;28;20053;-79
2023/10/17 14:04:36;;;;;;;3.00;0.70;;;15.00;59.60;;;;;;5016896;28;20054;-79
2023/10/17 14:07:14;;;;;;;2.92;0.80;;;15.00;60.00;;;;;;5028883;28;20266;-79
2023/10/17 14:09:41;;;;;;;4.47;1.20;;;15.00;60.60;;;;;;5027676;28;20054;-80
2023/10/17 14:12:09;;;;;;;3.45;0.80;;;15.00;60.60;;;;;;5027841;28;20081;-79
2023/10/17 14:14:36;;;;;;;4.90;0.77;;;15.00;60.00;;;;;;5016142;28;20064;-79
2023/10/17 14:17:04;;;;;;;4.73;0.70;;;15.00;60.00;;;;;;5012101;28;20479;-79
2023/10/17 14:19:44;;;;;;;4.00;0.80;;;15.10;59.70;;;;;;5017236;28;20335;-80
2023/10/17 14:22:33;;;;;;;2.85;0.70;;;15.10;59.80;;;;;;5021624;28;20062;-80
2023/10/17 14:25:04;;;;;;;3.25;0.73;;;15.10;59.80;;;;;;5023662;28;20493;-79
2023/10/17 14:27:31;;;;;;;4.20;0.80;;;15.20;60.10;;;;;;5008368;28;20504;-79
2023/10/17 14:29:59;;;;;;;3.47;0.67;;;15.20;59.10;;;;;;5027632;28;20064;-79
2023/10/17 14:32:28;;;;;;;4.38;0.90;;;15.20;58.70;;;;;;5009494;28;20285;-79
2023/10/17 14:34:57;;;;;;;3.85;0.90;;;15.20;59.00;;;;;;5027369;28;20140;-79
2023/10/17 14:37:27;;;;;;;2.90;0.73;;;15.20;59.40;;;;;;5007847;28;20105;-78
2023/10/17 14:39:54;;;;;;;5.10;1.02;;;15.20;59.10;;;;;;5017101;28;20053;-79
2023/10/17 14:42:22;;;;;;;3.27;0.73;;;15.20;58.80;;;;;;5028422;28;20057;-80
2023/10/17 14:44:51;;;;;;;6.05;1.30;;;15.20;59.60;;;;;;5030254;28;20741;-80
2023/10/17 14:47:19;;;;;;;3.38;0.95;;;15.20;58.80;;;;;;5011712;28;20054;-79
2023/10/17 14:49:48;;;;;;;4.72;1.00;;;15.20;58.40;;;;;;5007963;28;20089;-79
2023/10/17 14:52:18;;;;;;;4.20;1.05;;;15.20;57.80;;;;;;5021303;28;21001;-79